Time;durP1;ratioP1;P1;durP2;ratioP2;P2;SDS_P1;SDS_P2;PMS_P1;PMS_P2;Temp;Humidity;BMP_temperature;BMP_pressure;BME280_temperature;BME280_humidity;BME280_pressure;Samples;Min_cycle;Max_cycle;Signal;HPM_P1;HPM_P2
2022/08/31 06:18:39;;;;;;;;;;;14.30;99.90;;;;;;5566037;23;19985;-75
2022/08/31 06:21:08;;;;;;;;;;;14.40;99.90;;;;;;4927764;29;19929;-76
2022/08/31 06:23:35;;;;;;;;;;;14.40;99.90;;;;;;4925219;29;19930;-76
2022/08/31 06:26:01;;;;;;;;;;;14.40;99.90;;;;;;4919345;29;19956;-76
2022/08/31 06:28:31;;;;;;;;;;;14.50;99.90;;;;;;4916716;29;19931;-76
2022/08/31 06:30:58;;;;;;;;;;;14.60;99.90;;;;;;4928071;29;19969;-75
2022/08/31 06:33:23;;;;;;;;;;;14.70;99.90;;;;;;4929092;29;19923;-76
2022/08/31 06:35:49;;;;;;;;;;;14.70;99.90;;;;;;4934674;29;20277;-76
2022/08/31 06:38:14;;;;;;;;;;;14.80;99.90;;;;;;4931753;29;19930;-76
2022/08/31 06:40:40;;;;;;;;;;;14.90;99.90;;;;;;4918936;29;19923;-76
2022/08/31 06:43:06;;;;;;;;;;;14.90;99.90;;;;;;4929403;29;20101;-76
2022/08/31 06:45:32;;;;;;;;;;;15.00;99.90;;;;;;4916844;29;19923;-76
2022/08/31 06:47:59;;;;;;;;;;;15.10;99.90;;;;;;4926545;29;19923;-75
2022/08/31 06:50:25;;;;;;;;;;;15.30;99.90;;;;;;4923591;29;19922;-76
2022/08/31 06:52:50;;;;;;;;;;;15.20;99.90;;;;;;4922078;29;20366;-76
2022/08/31 06:55:16;;;;;;;;;;;15.40;99.90;;;;;;4925274;29;19966;-77
2022/08/31 06:57:42;;;;;;;;;;;15.40;99.90;;;;;;4930975;29;19923;-76
2022/08/31 07:00:07;;;;;;;;;;;15.50;99.90;;;;;;4920744;29;19938;-78
2022/08/31 07:02:33;;;;;;;;;;;15.50;99.90;;;;;;4929905;29;19924;-78
2022/08/31 07:04:58;;;;;;;;;;;15.70;99.90;;;;;;4930473;29;19929;-78
2022/08/31 07:07:24;;;;;;;;;;;15.70;99.90;;;;;;4929919;29;19930;-77
2022/08/31 07:09:49;;;;;;;;;;;15.80;99.90;;;;;;4931035;29;19922;-77
2022/08/31 07:12:15;;;;;;;;;;;15.80;99.90;;;;;;4921715;29;20007;-78
2022/08/31 07:14:40;;;;;;;;;;;15.90;99.90;;;;;;4922762;29;19922;-77
2022/08/31 07:17:07;;;;;;;;;;;16.00;99.90;;;;;;4933659;29;20396;-77
2022/08/31 07:19:32;;;;;;;;;;;16.10;99.90;;;;;;4926734;29;20012;-77
2022/08/31 07:21:59;;;;;;;;;;;16.10;99.90;;;;;;4917435;29;19938;-78
2022/08/31 07:24:28;;;;;;;;;;;16.20;99.90;;;;;;4933456;29;19930;-78
2022/08/31 07:26:59;;;;;;;;;;;16.30;99.90;;;;;;4933468;29;20017;-79
2022/08/31 07:29:29;;;;;;;;;;;16.40;99.90;;;;;;4934773;29;20310;-78
2022/08/31 07:31:55;;;;;;;;;;;16.30;99.90;;;;;;4933566;29;19929;-78
2022/08/31 07:34:24;;;;;;;;;;;16.40;99.90;;;;;;4935080;29;20422;-78
2022/08/31 07:42:32;;;;;;;;;;;16.60;99.90;;;;;;4932515;29;19931;-78
2022/08/31 07:44:59;;;;;;;;;;;16.70;99.90;;;;;;4932939;29;19922;-78
2022/08/31 07:47:27;;;;;;;;;;;16.70;99.90;;;;;;4932119;29;19970;-79
2022/08/31 07:49:54;;;;;;;;;;;16.80;99.90;;;;;;4923729;29;20022;-78
2022/08/31 07:52:22;;;;;;;;;;;16.90;99.90;;;;;;4930999;29;19933;-79
2022/08/31 07:54:48;;;;;;;;;;;16.90;99.90;;;;;;4931059;29;20091;-79
2022/08/31 07:57:14;;;;;;;;;;;16.90;99.90;;;;;;4931494;29;19930;-79
2022/08/31 07:59:40;;;;;;;;;;;17.10;99.90;;;;;;4934554;29;19962;-78
2022/08/31 08:02:10;;;;;;;;;;;17.10;99.90;;;;;;4933028;29;19981;-77
2022/08/31 08:04:39;;;;;;;;;;;17.20;99.90;;;;;;4934138;29;19966;-77
2022/08/31 08:07:05;;;;;;;;;;;17.20;99.90;;;;;;4931703;29;19926;-77
2022/08/31 08:09:31;;;;;;;;;;;17.30;99.90;;;;;;4933239;29;19923;-78
2022/08/31 08:12:05;;;;;;;;;;;17.40;99.90;;;;;;4933223;29;20353;-78
2022/08/31 08:14:39;;;;;;;;;;;17.50;99.90;;;;;;4934248;29;20285;-79
2022/08/31 08:17:05;;;;;;;;;;;17.40;99.90;;;;;;4934061;29;19931;-78
2022/08/31 08:19:32;;;;;;;;;;;17.50;99.90;;;;;;4931936;29;20326;-78
2022/08/31 08:21:58;;;;;;;;;;;17.60;99.90;;;;;;4934122;29;19985;-79
2022/08/31 08:24:25;;;;;;;;;;;17.60;99.90;;;;;;4926659;29;19981;-79
2022/08/31 08:26:51;;;;;;;;;;;17.60;99.90;;;;;;4932498;29;19930;-78
2022/08/31 08:29:17;;;;;;;;;;;17.70;99.90;;;;;;4932651;29;19933;-79
2022/08/31 08:31:51;;;;;;;;;;;17.80;99.90;;;;;;4914001;29;20025;-78
2022/08/31 08:34:18;;;;;;;;;;;17.80;99.90;;;;;;4913826;29;19923;-78
2022/08/31 08:36:44;;;;;;;;;;;17.90;99.90;;;;;;4916041;29;19927;-77
2022/08/31 08:39:10;;;;;;;;;;;17.90;99.90;;;;;;4929645;29;19930;-77
2022/08/31 08:41:36;;;;;;;;;;;18.10;99.90;;;;;;4928666;29;19922;-78
2022/08/31 08:44:04;;;;;;;;;;;18.10;99.90;;;;;;4932167;29;20405;-77
2022/08/31 08:46:38;;;;;;;;;;;18.10;99.90;;;;;;4931792;29;20052;-77
2022/08/31 08:49:16;;;;;;;;;;;18.20;99.90;;;;;;4934809;29;19929;-78
2022/08/31 08:51:43;;;;;;;;;;;18.30;99.90;;;;;;4930013;29;19923;-77
2022/08/31 08:54:11;;;;;;;;;;;18.30;99.90;;;;;;4924915;29;19923;-78
2022/08/31 08:56:46;;;;;;;;;;;18.40;99.90;;;;;;4921197;29;19976;-79
2022/08/31 08:59:12;;;;;;;;;;;18.40;99.90;;;;;;4929983;29;19922;-78
2022/08/31 09:01:38;;;;;;;;;;;18.50;99.90;;;;;;4932500;29;22360;-77
2022/08/31 09:04:10;;;;;;;;;;;18.40;99.90;;;;;;4934047;29;20026;-77
2022/08/31 09:06:48;;;;;;;;;;;18.60;99.90;;;;;;4933165;29;19923;-77
2022/08/31 09:09:33;;;;;;;;;;;18.60;99.90;;;;;;4923635;29;20214;-78
2022/08/31 09:12:17;;;;;;;;;;;18.70;99.90;;;;;;4930456;29;19923;-77
2022/08/31 09:14:46;;;;;;;;;;;18.70;99.90;;;;;;4924010;29;19923;-78
2022/08/31 09:17:15;;;;;;;;;;;18.60;99.90;;;;;;4914641;29;19966;-77
2022/08/31 09:19:58;;;;;;;;;;;18.80;99.90;;;;;;4931482;29;20348;-78
2022/08/31 09:22:28;;;;;;;;;;;18.90;99.90;;;;;;4921898;29;20039;-76
2022/08/31 09:24:58;;;;;;;;;;;19.00;99.80;;;;;;4931112;29;20390;-77
2022/08/31 09:27:45;;;;;;;;;;;19.00;99.70;;;;;;4925974;29;20397;-77
2022/08/31 09:30:12;;;;;;;;;;;19.10;99.60;;;;;;4922316;29;19941;-78
2022/08/31 09:32:37;;;;;;;;;;;19.10;99.40;;;;;;4928944;29;19934;-76
2022/08/31 09:35:05;;;;;;;;;;;19.10;99.40;;;;;;4924135;29;19923;-78
2022/08/31 09:37:32;;;;;;;;;;;19.10;99.50;;;;;;4930760;29;19962;-77
2022/08/31 09:40:13;;;;;;;;;;;19.10;99.40;;;;;;4933048;29;20022;-77
2022/08/31 09:42:39;;;;;;;;;;;19.10;99.40;;;;;;4930093;29;19930;-77
2022/08/31 09:45:10;;;;;;;;;;;19.10;99.20;;;;;;4921489;29;19923;-78
2022/08/31 09:47:47;;;;;;;;;;;19.00;99.20;;;;;;4917943;29;20381;-77
2022/08/31 09:50:31;;;;;;;;;;;19.00;99.50;;;;;;4923338;29;20302;-78
2022/08/31 09:56:04;;;;;;;;;;;19.00;99.20;;;;;;4930392;29;19922;-76
2022/08/31 09:58:32;;;;;;;;;;;19.10;99.20;;;;;;4926451;29;19941;-79
2022/08/31 10:01:11;;;;;;;;;;;19.10;99.10;;;;;;4924929;29;19927;-81
2022/08/31 10:03:37;;;;;;;;;;;19.30;99.10;;;;;;4928405;29;19922;-80
2022/08/31 10:06:03;;;;;;;;;;;19.30;98.90;;;;;;4931956;29;19930;-79
2022/08/31 10:08:37;;;;;;;;;;;19.40;98.60;;;;;;4929852;29;19945;-79
2022/08/31 10:11:16;;;;;;;;;;;19.40;98.60;;;;;;4932196;29;19986;-78
2022/08/31 10:13:52;;;;;;;;;;;19.50;98.60;;;;;;4933336;29;19949;-79
2022/08/31 10:16:24;;;;;;;;;;;19.60;98.50;;;;;;4924445;29;19929;-79
2022/08/31 10:18:54;;;;;;;;;;;19.70;98.00;;;;;;4926731;29;19930;-78
2022/08/31 10:21:24;;;;;;;;;;;19.70;97.90;;;;;;4925859;29;19930;-80
2022/08/31 10:24:09;;;;;;;;;;;19.70;97.80;;;;;;4926633;29;19926;-80
2022/08/31 10:26:57;;;;;;;;;;;19.70;97.80;;;;;;4928643;29;19923;-80
2022/08/31 10:29:30;;;;;;;;;;;19.80;97.80;;;;;;4912125;29;20142;-79
2022/08/31 10:31:57;;;;;;;;;;;19.80;97.70;;;;;;4930201;29;20085;-79
2022/08/31 10:37:14;;;;;;;;;;;20.00;97.50;;;;;;4912328;29;19999;-79
2022/08/31 10:39:43;;;;;;;;;;;20.10;97.60;;;;;;4920531;29;19922;-78
2022/08/31 10:42:28;;;;;;;;;;;20.30;97.60;;;;;;4929452;29;20026;-78
2022/08/31 10:45:22;;;;;;;;;;;20.40;97.40;;;;;;4928438;29;19938;-79
2022/08/31 10:47:49;;;;;;;;;;;20.50;97.10;;;;;;4926722;29;19923;-79
2022/08/31 10:50:24;;;;;;;;;;;20.70;96.90;;;;;;4934292;29;19931;-78
2022/08/31 10:53:02;;;;;;;;;;;20.70;96.60;;;;;;4932801;29;19999;-78
2022/08/31 10:55:36;;;;;;;;;;;20.90;96.50;;;;;;4925748;29;20372;-77
2022/08/31 10:58:16;;;;;;;;;;;21.00;96.20;;;;;;4919101;29;20383;-77
2022/08/31 11:00:48;;;;;;;;;;;21.10;96.00;;;;;;4923830;29;19978;-76
2022/08/31 11:03:20;;;;;;;;;;;21.20;95.70;;;;;;4925230;29;20377;-77
2022/08/31 11:05:48;;;;;;;;;;;21.30;95.40;;;;;;4929279;29;19939;-76
2022/08/31 11:08:14;;;;;;;;;;;21.30;95.10;;;;;;4925341;29;19918;-77
2022/08/31 11:10:45;;;;;;;;;;;21.40;94.90;;;;;;4923958;29;19922;-77
2022/08/31 11:13:30;;;;;;;;;;;21.50;94.50;;;;;;4928585;29;19930;-77
2022/08/31 11:16:07;;;;;;;;;;;21.50;94.50;;;;;;4930674;29;20045;-77
2022/08/31 11:18:38;;;;;;;;;;;21.50;94.10;;;;;;4923207;29;19946;-76
2022/08/31 11:21:16;;;;;;;;;;;21.50;94.00;;;;;;4924518;29;19922;-77
2022/08/31 11:24:04;;;;;;;;;;;21.60;93.50;;;;;;4930294;29;20063;-76
2022/08/31 11:26:37;;;;;;;;;;;21.70;93.30;;;;;;4930157;29;19922;-77
2022/08/31 11:29:15;;;;;;;;;;;21.70;93.00;;;;;;4934123;29;19981;-76
2022/08/31 11:31:41;;;;;;;;;;;21.80;92.70;;;;;;4925958;29;19951;-77
2022/08/31 11:34:12;;;;;;;;;;;21.80;92.60;;;;;;4934318;29;19926;-76
2022/08/31 11:36:49;;;;;;;;;;;21.90;92.60;;;;;;4932207;29;19922;-76
2022/08/31 11:39:21;;;;;;;;;;;22.00;92.40;;;;;;4934482;29;19941;-77
2022/08/31 11:41:48;;;;;;;;;;;22.10;92.00;;;;;;4928986;29;19982;-73
2022/08/31 11:44:28;;;;;;;;;;;22.10;91.90;;;;;;4931219;29;19922;-78
2022/08/31 11:47:03;;;;;;;;;;;22.20;91.70;;;;;;4932993;29;19923;-77
2022/08/31 11:49:44;;;;;;;;;;;22.20;91.60;;;;;;4928878;29;19971;-77
2022/08/31 11:52:33;;;;;;;;;;;22.30;91.60;;;;;;4924357;29;19923;-76
2022/08/31 11:55:05;;;;;;;;;;;22.40;91.40;;;;;;4926860;29;19970;-77
2022/08/31 11:57:31;;;;;;;;;;;22.50;91.30;;;;;;4928182;29;20013;-77
2022/08/31 11:59:57;;;;;;;;;;;22.60;91.30;;;;;;4924891;29;20039;-77
2022/08/31 12:02:24;;;;;;;;;;;22.80;91.10;;;;;;4921942;29;20495;-76
2022/08/31 12:04:56;;;;;;;;;;;22.90;90.70;;;;;;4927795;29;19927;-76
2022/08/31 12:07:40;;;;;;;;;;;23.00;90.70;;;;;;4918183;29;19937;-76
2022/08/31 12:10:05;;;;;;;;;;;23.10;90.20;;;;;;4931953;29;19934;-75
2022/08/31 12:12:50;;;;;;;;;;;23.20;89.10;;;;;;4930018;29;19918;-81
2022/08/31 12:15:24;;;;;;;;;;;23.30;89.20;;;;;;4932665;29;19922;-75
2022/08/31 12:18:00;;;;;;;;;;;23.50;88.70;;;;;;4923071;29;19926;-77
2022/08/31 12:20:26;;;;;;;;;;;23.60;88.10;;;;;;4923081;29;20806;-77
2022/08/31 12:25:55;;;;;;;;;;;23.80;88.40;;;;;;4928100;29;19923;-77
2022/08/31 12:28:35;;;;;;;;;;;24.00;87.30;;;;;;4924220;29;19923;-77
2022/08/31 12:31:04;;;;;;;;;;;24.20;87.00;;;;;;4921321;29;19923;-78
2022/08/31 12:33:31;;;;;;;;;;;24.30;86.60;;;;;;4926859;29;19933;-78
2022/08/31 12:36:14;;;;;;;;;;;24.40;86.40;;;;;;4924347;29;19919;-79
2022/08/31 12:38:40;;;;;;;;;;;24.60;84.90;;;;;;4921866;29;20025;-79
2022/08/31 12:41:08;;;;;;;;;;;24.70;83.50;;;;;;4930548;29;20014;-81
2022/08/31 12:43:37;;;;;;;;;;;24.80;83.30;;;;;;4933519;29;19962;-81
2022/08/31 12:46:06;;;;;;;;;;;24.90;82.70;;;;;;4921625;29;19962;-82
2022/08/31 12:48:50;;;;;;;;;;;25.00;82.60;;;;;;4930767;29;19926;-81
2022/08/31 12:51:35;;;;;;;;;;;25.10;82.10;;;;;;4919483;29;20012;-80
2022/08/31 12:54:06;;;;;;;;;;;25.20;80.80;;;;;;4928171;29;21971;-80
2022/08/31 12:56:32;;;;;;;;;;;25.20;79.80;;;;;;4930861;29;19923;-79
2022/08/31 12:59:16;;;;;;;;;;;25.20;79.70;;;;;;4931233;29;20662;-79
2022/08/31 13:01:44;;;;;;;;;;;25.30;79.60;;;;;;4927008;29;20446;-77
2022/08/31 13:04:09;;;;;;;;;;;25.30;79.40;;;;;;4924622;29;19927;-79
2022/08/31 13:06:37;;;;;;;;;;;25.40;77.90;;;;;;4928252;29;19959;-79
2022/08/31 13:09:03;;;;;;;;;;;25.40;78.50;;;;;;4921417;29;19927;-79
2022/08/31 13:11:33;;;;;;;;;;;25.40;78.80;;;;;;4926314;29;19923;-79
2022/08/31 13:14:10;;;;;;;;;;;25.50;78.90;;;;;;4920695;29;19935;-77
2022/08/31 13:16:41;;;;;;;;;;;25.60;79.10;;;;;;4918859;29;19927;-80
2022/08/31 13:19:15;;;;;;;;;;;25.80;79.20;;;;;;4926398;29;19933;-78
2022/08/31 13:21:41;;;;;;;;;;;25.80;77.90;;;;;;4931567;29;19929;-80
2022/08/31 13:24:09;;;;;;;;;;;25.80;77.80;;;;;;4925425;29;19922;-80
2022/08/31 13:26:36;;;;;;;;;;;25.80;78.70;;;;;;4933626;29;19922;-79
2022/08/31 13:29:06;;;;;;;;;;;25.80;78.00;;;;;;4918911;29;20021;-81
2022/08/31 13:31:34;;;;;;;;;;;25.70;77.60;;;;;;4928398;29;20036;-79
2022/08/31 13:34:01;;;;;;;;;;;25.60;78.30;;;;;;4927862;29;19923;-78
2022/08/31 13:36:32;;;;;;;;;;;25.50;78.30;;;;;;4924250;29;20018;-78
2022/08/31 13:39:02;;;;;;;;;;;25.50;78.70;;;;;;4927244;29;19929;-81
2022/08/31 13:41:30;;;;;;;;;;;25.50;77.80;;;;;;4925025;29;19974;-81
2022/08/31 13:44:00;;;;;;;;;;;25.40;78.80;;;;;;4922363;29;19954;-78
2022/08/31 13:46:27;;;;;;;;;;;25.40;78.60;;;;;;4920853;29;19926;-77
2022/08/31 13:48:55;;;;;;;;;;;25.30;78.50;;;;;;4926592;29;20755;-78
2022/08/31 13:51:22;;;;;;;;;;;25.10;77.30;;;;;;4926539;29;20030;-79
2022/08/31 13:53:54;;;;;;;;;;;24.90;77.80;;;;;;4923142;29;19922;-78
2022/08/31 13:59:16;;;;;;;;;;;24.70;80.10;;;;;;4917613;29;19927;-78
2022/08/31 14:01:46;;;;;;;;;;;24.70;79.40;;;;;;4924697;29;20374;-78
2022/08/31 14:04:47;;;;;;;;;;;24.70;79.70;;;;;;4932097;29;20670;-80
2022/08/31 14:07:20;;;;;;;;;;;24.70;79.70;;;;;;4885132;29;19962;-78
2022/08/31 14:09:48;;;;;;;;;;;24.70;80.00;;;;;;4918993;29;19926;-77
2022/08/31 14:12:20;;;;;;;;;;;24.60;79.80;;;;;;4923642;29;19923;-78
2022/08/31 14:14:47;;;;;;;;;;;24.60;80.50;;;;;;4932598;29;19927;-79
2022/08/31 14:17:14;;;;;;;;;;;24.70;79.60;;;;;;4931072;29;19970;-79
2022/08/31 14:19:41;;;;;;;;;;;24.60;79.30;;;;;;4932796;29;19922;-78
2022/08/31 14:22:15;;;;;;;;;;;24.60;79.80;;;;;;4933613;29;19962;-79
2022/08/31 14:24:42;;;;;;;;;;;24.60;80.00;;;;;;4926899;29;20367;-79
2022/08/31 14:27:10;;;;;;;;;;;24.80;81.10;;;;;;4923224;29;19942;-78
2022/08/31 14:29:39;;;;;;;;;;;25.00;80.30;;;;;;4921146;29;19926;-79
2022/08/31 14:32:04;;;;;;;;;;;25.30;80.80;;;;;;4912194;29;19958;-79
2022/08/31 14:34:31;;;;;;;;;;;26.00;83.10;;;;;;4917549;29;19990;-78
2022/08/31 14:36:56;;;;;;;;;;;27.00;81.90;;;;;;4922648;29;20289;-78
2022/08/31 14:39:26;;;;;;;;;;;27.50;79.60;;;;;;4927942;29;19922;-79
2022/08/31 14:41:53;;;;;;;;;;;27.80;77.40;;;;;;4927528;29;19933;-78
2022/08/31 14:44:23;;;;;;;;;;;27.70;76.80;;;;;;4930670;29;19927;-79
2022/08/31 14:46:49;;;;;;;;;;;27.80;76.70;;;;;;4935943;29;19930;-80
2022/08/31 14:49:15;;;;;;;;;;;27.90;75.40;;;;;;4924907;29;19918;-80
2022/08/31 14:51:42;;;;;;;;;;;28.00;74.50;;;;;;4933622;29;19931;-78
2022/08/31 14:54:08;;;;;;;;;;;27.70;73.30;;;;;;4933135;29;20544;-80
2022/08/31 14:56:36;;;;;;;;;;;27.40;72.90;;;;;;4933335;29;20004;-80
2022/08/31 14:59:04;;;;;;;;;;;27.10;73.60;;;;;;4932220;29;19944;-79
2022/08/31 15:01:34;;;;;;;;;;;26.90;73.80;;;;;;4931308;29;19919;-79
2022/08/31 15:04:02;;;;;;;;;;;26.60;72.30;;;;;;4933501;29;20385;-78
2022/08/31 15:06:29;;;;;;;;;;;26.50;72.60;;;;;;4931059;29;19930;-78
2022/08/31 15:08:54;;;;;;;;;;;26.20;74.00;;;;;;4932858;29;20990;-78
2022/08/31 15:11:20;;;;;;;;;;;26.20;75.30;;;;;;4936600;29;20009;-82
2022/08/31 15:13:46;;;;;;;;;;;26.40;76.50;;;;;;4929051;29;19930;-80
2022/08/31 15:16:13;;;;;;;;;;;27.10;76.70;;;;;;4932212;29;20374;-82
2022/08/31 15:18:41;;;;;;;;;;;27.70;75.60;;;;;;4930004;29;19934;-81
2022/08/31 15:21:09;;;;;;;;;;;28.00;73.60;;;;;;4931796;29;20005;-78
2022/08/31 15:23:40;;;;;;;;;;;28.00;73.30;;;;;;4930890;29;19927;-78
2022/08/31 15:26:08;;;;;;;;;;;27.80;71.90;;;;;;4924278;29;19982;-78
2022/08/31 15:28:36;;;;;;;;;;;27.60;70.90;;;;;;4930085;29;19922;-79
2022/08/31 15:31:07;;;;;;;;;;;27.20;71.30;;;;;;4931992;29;19923;-77
2022/08/31 15:33:35;;;;;;;;;;;27.20;73.20;;;;;;4934429;29;19926;-77
2022/08/31 15:36:02;;;;;;;;;;;27.60;72.80;;;;;;4926028;29;20536;-80
2022/08/31 15:38:27;;;;;;;;;;;27.80;71.40;;;;;;4935077;29;19927;-81
2022/08/31 15:40:53;;;;;;;;;;;27.60;69.90;;;;;;4928159;29;19929;-80
2022/08/31 15:43:18;;;;;;;;;;;27.10;69.40;;;;;;4932818;29;19922;-79
2022/08/31 15:45:44;;;;;;;;;;;26.60;69.30;;;;;;4930283;29;20339;-79
2022/08/31 15:50:59;;;;;;;;;;;25.60;70.20;;;;;;4933792;29;19927;-77
2022/08/31 15:53:28;;;;;;;;;;;25.20;70.90;;;;;;4935773;29;19919;-79
2022/08/31 15:55:54;;;;;;;;;;;24.90;70.90;;;;;;4931998;29;19989;-75
2022/08/31 15:58:20;;;;;;;;;;;24.50;71.20;;;;;;4931501;29;19970;-75
2022/08/31 16:00:48;;;;;;;;;;;24.20;72.00;;;;;;4927083;29;19935;-74
2022/08/31 16:03:14;;;;;;;;;;;23.90;72.40;;;;;;4924535;29;20362;-75
2022/08/31 16:05:42;;;;;;;;;;;23.70;72.90;;;;;;4930015;29;20017;-75
2022/08/31 16:08:09;;;;;;;;;;;23.50;73.60;;;;;;4931098;29;20437;-76
2022/08/31 16:10:37;;;;;;;;;;;23.30;74.00;;;;;;4930656;29;19931;-76
2022/08/31 16:13:08;;;;;;;;;;;23.10;74.00;;;;;;4932389;29;19974;-76
2022/08/31 16:15:34;;;;;;;;;;;22.90;74.20;;;;;;4930027;29;19929;-78
2022/08/31 16:18:01;;;;;;;;;;;22.70;74.80;;;;;;4930221;29;19932;-77
2022/08/31 16:20:27;;;;;;;;;;;22.60;75.40;;;;;;4933480;29;20021;-75
2022/08/31 16:22:53;;;;;;;;;;;22.50;75.90;;;;;;4933428;29;20378;-75
2022/08/31 16:25:19;;;;;;;;;;;22.40;76.20;;;;;;4929157;29;20128;-77
2022/08/31 16:27:45;;;;;;;;;;;22.30;76.40;;;;;;4932177;29;20124;-75
2022/08/31 16:30:12;;;;;;;;;;;22.20;76.50;;;;;;4930847;29;20017;-76
2022/08/31 16:32:38;;;;;;;;;;;22.00;76.90;;;;;;4930269;29;19922;-77
2022/08/31 16:35:04;;;;;;;;;;;22.00;77.20;;;;;;4932981;29;19946;-76
2022/08/31 16:37:30;;;;;;;;;;;21.90;77.30;;;;;;4929709;29;19923;-77
2022/08/31 16:40:03;;;;;;;;;;;21.80;77.60;;;;;;4928755;29;19927;-75
2022/08/31 16:42:31;;;;;;;;;;;21.80;78.80;;;;;;4933055;29;19934;-77
2022/08/31 16:44:56;;;;;;;;;;;22.00;79.70;;;;;;4931089;29;20026;-76
2022/08/31 16:47:22;;;;;;;;;;;22.20;80.40;;;;;;4929082;29;20391;-77
2022/08/31 16:49:47;;;;;;;;;;;22.70;82.30;;;;;;4927531;29;19926;-76
2022/08/31 16:52:16;;;;;;;;;;;23.50;82.60;;;;;;4932046;29;19939;-76
2022/08/31 16:54:43;;;;;;;;;;;24.30;81.40;;;;;;4931410;29;19925;-77
2022/08/31 16:57:11;;;;;;;;;;;24.80;78.70;;;;;;4929754;29;19922;-78
2022/08/31 16:59:39;;;;;;;;;;;24.80;76.60;;;;;;4927087;29;19926;-77
2022/08/31 17:02:10;;;;;;;;;;;24.50;75.80;;;;;;4927990;29;20013;-77
2022/08/31 17:04:37;;;;;;;;;;;24.20;75.80;;;;;;4930399;29;19930;-76
2022/08/31 17:07:02;;;;;;;;;;;23.90;75.90;;;;;;4932190;29;19946;-76
2022/08/31 17:09:28;;;;;;;;;;;23.50;76.20;;;;;;4922308;29;20401;-77
2022/08/31 17:11:54;;;;;;;;;;;23.10;76.60;;;;;;4919835;29;20559;-76
2022/08/31 17:14:32;;;;;;;;;;;22.80;77.10;;;;;;4918530;29;20361;-76
2022/08/31 17:17:02;;;;;;;;;;;22.50;77.70;;;;;;4931381;29;20567;-75
2022/08/31 17:19:30;;;;;;;;;;;22.20;78.30;;;;;;4934665;29;19926;-74
2022/08/31 17:21:58;;;;;;;;;;;22.00;79.00;;;;;;4932250;29;19923;-75
2022/08/31 17:24:25;;;;;;;;;;;21.70;79.50;;;;;;4931801;29;20506;-76
2022/08/31 17:26:52;;;;;;;;;;;21.50;80.20;;;;;;4919358;29;19923;-75
2022/08/31 17:29:19;;;;;;;;;;;21.40;80.90;;;;;;4922746;29;19922;-75
2022/08/31 17:31:45;;;;;;;;;;;21.30;81.60;;;;;;4918871;29;20187;-75
2022/08/31 17:34:16;;;;;;;;;;;21.10;82.30;;;;;;4932815;29;19927;-74
2022/08/31 17:36:44;;;;;;;;;;;21.00;83.10;;;;;;4931906;29;20370;-75
2022/08/31 17:39:11;;;;;;;;;;;20.90;83.80;;;;;;4931061;29;20037;-76
2022/08/31 17:41:38;;;;;;;;;;;20.70;84.40;;;;;;4931467;29;19923;-76
2022/08/31 17:44:06;;;;;;;;;;;20.70;85.10;;;;;;4930826;29;19977;-75
2022/08/31 17:46:32;;;;;;;;;;;20.60;85.80;;;;;;4925748;29;19923;-79
2022/08/31 17:48:59;;;;;;;;;;;20.50;86.40;;;;;;4926807;29;19977;-76
2022/08/31 17:51:28;;;;;;;;;;;20.50;87.00;;;;;;4928861;29;20031;-75
2022/08/31 17:53:59;;;;;;;;;;;20.40;87.70;;;;;;4924643;29;19948;-75
2022/08/31 17:56:27;;;;;;;;;;;20.30;88.10;;;;;;4924370;29;20547;-76
2022/08/31 17:58:55;;;;;;;;;;;20.30;88.70;;;;;;4921861;29;19930;-75
2022/08/31 18:01:29;;;;;;;;;;;20.20;89.40;;;;;;4925097;29;20029;-76
2022/08/31 18:03:57;;;;;;;;;;;20.10;90.00;;;;;;4930018;29;20031;-76
2022/08/31 18:06:23;;;;;;;;;;;20.00;90.10;;;;;;4926797;29;19922;-75
2022/08/31 18:08:49;;;;;;;;;;;20.00;90.40;;;;;;4929643;29;20326;-75
2022/08/31 18:11:15;;;;;;;;;;;20.00;90.60;;;;;;4923572;29;19923;-74
2022/08/31 18:13:42;;;;;;;;;;;20.00;90.80;;;;;;4929724;29;20306;-75
2022/08/31 18:16:07;;;;;;;;;;;19.80;91.00;;;;;;4924374;29;19930;-76
2022/08/31 18:18:34;;;;;;;;;;;19.70;91.30;;;;;;4927677;29;20282;-76
2022/08/31 18:21:03;;;;;;;;;;;19.60;91.50;;;;;;4919032;29;19930;-76
2022/08/31 18:23:29;;;;;;;;;;;19.60;92.00;;;;;;4927347;29;19927;-74
2022/08/31 18:25:57;;;;;;;;;;;19.50;91.90;;;;;;4933618;29;20074;-76
2022/08/31 18:28:23;;;;;;;;;;;19.50;92.10;;;;;;4928644;29;20025;-77
2022/08/31 18:30:50;;;;;;;;;;;19.50;92.40;;;;;;4925559;29;19958;-76
2022/08/31 18:33:17;;;;;;;;;;;19.40;92.50;;;;;;4931926;29;19973;-76
2022/08/31 18:35:44;;;;;;;;;;;19.30;92.60;;;;;;4932349;29;20024;-75
2022/08/31 18:38:11;;;;;;;;;;;19.30;92.80;;;;;;4935039;29;20075;-74
2022/08/31 18:46:08;;;;;;;;;;;19.20;93.30;;;;;;4934136;29;19929;-75
2022/08/31 18:48:33;;;;;;;;;;;19.10;93.50;;;;;;4934819;29;19919;-74
2022/08/31 18:51:02;;;;;;;;;;;19.10;93.70;;;;;;4933051;29;19923;-74
2022/08/31 18:53:31;;;;;;;;;;;19.00;93.80;;;;;;4933662;29;19923;-75
2022/08/31 18:55:58;;;;;;;;;;;19.10;94.10;;;;;;4935005;29;19919;-74
2022/08/31 18:58:23;;;;;;;;;;;18.90;94.20;;;;;;4934446;29;19989;-75
2022/08/31 19:00:55;;;;;;;;;;;18.80;94.40;;;;;;4932716;29;19919;-75
2022/08/31 19:03:24;;;;;;;;;;;18.80;94.60;;;;;;4934975;29;19930;-74
2022/08/31 19:05:53;;;;;;;;;;;18.70;94.70;;;;;;4929808;29;19976;-74
2022/08/31 19:08:19;;;;;;;;;;;18.70;95.00;;;;;;4934264;29;19965;-74
2022/08/31 19:10:47;;;;;;;;;;;18.70;95.20;;;;;;4932795;29;19933;-75
2022/08/31 19:13:12;;;;;;;;;;;18.60;95.30;;;;;;4931582;29;19922;-75
2022/08/31 19:15:38;;;;;;;;;;;18.50;95.50;;;;;;4934523;29;19930;-75
2022/08/31 19:18:04;;;;;;;;;;;18.50;95.60;;;;;;4935854;29;19934;-75
2022/08/31 19:20:29;;;;;;;;;;;18.40;95.80;;;;;;4934986;29;19922;-76
2022/08/31 19:22:55;;;;;;;;;;;18.50;96.00;;;;;;4933878;29;20293;-76
2022/08/31 19:25:21;;;;;;;;;;;18.40;96.10;;;;;;4933113;29;19945;-75
2022/08/31 19:27:49;;;;;;;;;;;18.40;96.30;;;;;;4920955;29;20030;-75
2022/08/31 19:30:16;;;;;;;;;;;18.30;96.40;;;;;;4935006;29;20511;-75
2022/08/31 19:32:41;;;;;;;;;;;18.30;96.60;;;;;;4934451;29;19945;-75
2022/08/31 19:35:07;;;;;;;;;;;18.30;96.80;;;;;;4928385;29;19922;-75
2022/08/31 19:37:32;;;;;;;;;;;18.30;96.90;;;;;;4929792;29;19934;-75
2022/08/31 19:39:58;;;;;;;;;;;18.20;97.00;;;;;;4933358;29;19923;-75
2022/08/31 19:42:27;;;;;;;;;;;18.20;97.20;;;;;;4931723;29;20618;-75
2022/08/31 19:44:55;;;;;;;;;;;18.20;97.30;;;;;;4932941;29;20610;-75
2022/08/31 19:47:20;;;;;;;;;;;18.20;97.50;;;;;;4929966;29;20389;-74
2022/08/31 19:49:48;;;;;;;;;;;18.20;97.90;;;;;;4933558;29;19922;-75
2022/08/31 19:52:14;;;;;;;;;;;18.10;97.80;;;;;;4932419;29;19938;-75
2022/08/31 19:54:40;;;;;;;;;;;18.10;98.00;;;;;;4934326;29;20021;-75
2022/08/31 19:57:06;;;;;;;;;;;18.10;98.10;;;;;;4932249;29;20322;-75
2022/08/31 19:59:32;;;;;;;;;;;18.10;98.30;;;;;;4931644;29;20421;-75
2022/08/31 20:02:01;;;;;;;;;;;18.00;98.50;;;;;;4933637;29;19961;-74
2022/08/31 20:04:27;;;;;;;;;;;18.00;98.70;;;;;;4932951;29;19933;-74
2022/08/31 20:06:53;;;;;;;;;;;17.90;98.80;;;;;;4933597;29;19923;-75
2022/08/31 20:09:21;;;;;;;;;;;17.90;99.00;;;;;;4929078;29;19927;-74
2022/08/31 20:11:46;;;;;;;;;;;17.90;99.20;;;;;;4932346;29;20338;-75
2022/08/31 20:14:12;;;;;;;;;;;17.90;99.40;;;;;;4930347;29;19966;-75
2022/08/31 20:16:41;;;;;;;;;;;17.80;99.50;;;;;;4930907;29;19927;-75
2022/08/31 20:19:09;;;;;;;;;;;17.90;99.70;;;;;;4929527;29;20025;-77
2022/08/31 20:21:39;;;;;;;;;;;17.80;99.80;;;;;;4933106;29;19982;-76
2022/08/31 20:24:05;;;;;;;;;;;17.80;99.90;;;;;;4927847;29;20363;-76
2022/08/31 20:26:33;;;;;;;;;;;17.80;99.90;;;;;;4929414;29;19994;-75
2022/08/31 20:29:01;;;;;;;;;;;17.80;99.90;;;;;;4930268;29;19926;-74
2022/08/31 20:31:26;;;;;;;;;;;17.80;99.90;;;;;;4929806;29;19934;-75
2022/08/31 20:33:56;;;;;;;;;;;17.80;99.90;;;;;;4932609;29;19922;-74
2022/08/31 20:36:25;;;;;;;;;;;17.80;99.90;;;;;;4932379;29;20283;-76
2022/08/31 20:38:55;;;;;;;;;;;17.70;99.90;;;;;;4930398;29;19930;-74
2022/08/31 20:41:31;;;;;;;;;;;17.70;99.90;;;;;;4924573;29;20005;-74
2022/08/31 20:43:59;;;;;;;;;;;17.70;99.90;;;;;;4933036;29;20386;-75
2022/08/31 20:49:22;;;;;;;;;;;17.70;99.90;;;;;;4929570;29;19923;-76
2022/08/31 20:51:47;;;;;;;;;;;17.70;99.90;;;;;;4928848;29;19927;-74
2022/08/31 20:54:13;;;;;;;;;;;17.70;99.90;;;;;;4930524;29;19922;-76
2022/08/31 20:56:39;;;;;;;;;;;17.70;99.90;;;;;;4923582;29;20347;-75
2022/08/31 20:59:07;;;;;;;;;;;17.60;99.90;;;;;;4922738;29;19943;-76
2022/08/31 21:01:33;;;;;;;;;;;17.60;99.90;;;;;;4929866;29;19929;-75
2022/08/31 21:03:59;;;;;;;;;;;17.60;99.90;;;;;;4921802;29;20280;-75
2022/08/31 21:06:25;;;;;;;;;;;17.60;99.90;;;;;;4917461;29;19974;-76
2022/08/31 21:08:51;;;;;;;;;;;17.60;99.90;;;;;;4920995;29;20438;-76
2022/08/31 21:11:18;;;;;;;;;;;17.60;99.90;;;;;;4926811;29;20387;-75
2022/08/31 21:13:45;;;;;;;;;;;17.60;99.90;;;;;;4927745;29;20326;-76